Aviation Digital Data Service (ADDS)

Output produced by METARs form (2114 UTC 06 December 2019)
found at http://www.aviationweather.gov/metar/data/
 
METAR text: NWWW 062100Z AUTO 24003KT 170V290 CAVOK 28/20 Q1013 BECMG 16014KT
Conditions at: NWWW (LA TONTOUTA NLLE, WS) observed 2100 UTC 06 December 2019
Temperature: 28.0°C (82°F)
Dewpoint: 20.0°C (68°F) [RH = 62%]
Pressure (altimeter): 29.91 inches Hg (1013.0 mb)
Winds: from the WSW (240 degrees) at 3 MPH (3 knots; 1.5 m/s)
Visibility: 6 or more miles (10+ km)
Ceiling: ceiling and visibility are OK
Clouds: unknown
Weather: no significant weather observed at this time

METAR text: NWWW 062030Z AUTO VRB03KT CAVOK 27/20 Q1013 BECMG 16014KT
Conditions at: NWWW (LA TONTOUTA NLLE, WS) observed 2030 UTC 06 December 2019
Temperature: 27.0°C (81°F)
Dewpoint: 20.0°C (68°F) [RH = 66%]
Pressure (altimeter): 29.91 inches Hg (1013.0 mb)
Winds: variable direction winds at 3 MPH (3 knots; 1.5 m/s)
Visibility: 6 or more miles (10+ km)
Ceiling: ceiling and visibility are OK
Clouds: unknown
Weather: no significant weather observed at this time

METAR text: NWWW 062000Z AUTO VRB01KT CAVOK 26/18 Q1013 NOSIG
Conditions at: NWWW (LA TONTOUTA NLLE, WS) observed 2000 UTC 06 December 2019
Temperature: 26.0°C (79°F)
Dewpoint: 18.0°C (64°F) [RH = 61%]
Pressure (altimeter): 29.91 inches Hg (1013.0 mb)
Winds: variable direction winds at 1 MPH (1 knots; 0.5 m/s)
Visibility: 6 or more miles (10+ km)
Ceiling: ceiling and visibility are OK
Clouds: unknown
Weather: no significant weather observed at this time

METAR text: NWWW 061930Z AUTO VRB03KT CAVOK 23/18 Q1013 NOSIG
Conditions at: NWWW (LA TONTOUTA NLLE, WS) observed 1930 UTC 06 December 2019
Temperature: 23.0°C (73°F)
Dewpoint: 18.0°C (64°F) [RH = 73%]
Pressure (altimeter): 29.91 inches Hg (1013.0 mb)
Winds: variable direction winds at 3 MPH (3 knots; 1.5 m/s)
Visibility: 6 or more miles (10+ km)
Ceiling: ceiling and visibility are OK
Clouds: unknown
Weather: no significant weather observed at this time

METAR text: NWWW 061900Z AUTO 15003KT CAVOK 21/18 Q1013 NOSIG
Conditions at: NWWW (LA TONTOUTA NLLE, WS) observed 1900 UTC 06 December 2019
Temperature: 21.0°C (70°F)
Dewpoint: 18.0°C (64°F) [RH = 83%]
Pressure (altimeter): 29.91 inches Hg (1013.0 mb)
Winds: from the SSE (150 degrees) at 3 MPH (3 knots; 1.5 m/s)
Visibility: 6 or more miles (10+ km)
Ceiling: ceiling and visibility are OK
Clouds: unknown
Weather: no significant weather observed at this time

METAR text: NWWW 061830Z AUTO 00000KT CAVOK 21/17 Q1012 NOSIG
Conditions at: NWWW (LA TONTOUTA NLLE, WS) observed 1830 UTC 06 December 2019
Temperature: 21.0°C (70°F)
Dewpoint: 17.0°C (63°F) [RH = 78%]
Pressure (altimeter): 29.88 inches Hg (1012.0 mb)
Winds: calm
Visibility: 6 or more miles (10+ km)
Ceiling: ceiling and visibility are OK
Clouds: unknown
Weather: no significant weather observed at this time

METAR text: NWWW 061800Z AUTO 00000KT CAVOK 21/18 Q1012 NOSIG
Conditions at: NWWW (LA TONTOUTA NLLE, WS) observed 1800 UTC 06 December 2019
Temperature: 21.0°C (70°F)
Dewpoint: 18.0°C (64°F) [RH = 83%]
Pressure (altimeter): 29.88 inches Hg (1012.0 mb)
Winds: calm
Visibility: 6 or more miles (10+ km)
Ceiling: ceiling and visibility are OK
Clouds: unknown
Weather: no significant weather observed at this time

METAR text: NWWW 061730Z AUTO 00000KT 9999 FEW064 SCT078 22/18 Q1012 NOSIG
Conditions at: NWWW (LA TONTOUTA NLLE, WS) observed 1730 UTC 06 December 2019
Temperature: 22.0°C (72°F)
Dewpoint: 18.0°C (64°F) [RH = 78%]
Pressure (altimeter): 29.88 inches Hg (1012.0 mb)
Winds: calm
Visibility: 6 or more miles (10+ km)
Ceiling: at least 12,000 feet AGL
Clouds: few clouds at 6400 feet AGL
scattered clouds at 7800 feet AGL
Weather: no significant weather observed at this time

METAR text: NWWW 061700Z AUTO VRB01KT 9999 BKN060 22/18 Q1012 NOSIG
Conditions at: NWWW (LA TONTOUTA NLLE, WS) observed 1700 UTC 06 December 2019
Temperature: 22.0°C (72°F)
Dewpoint: 18.0°C (64°F) [RH = 78%]
Pressure (altimeter): 29.88 inches Hg (1012.0 mb)
Winds: variable direction winds at 1 MPH (1 knots; 0.5 m/s)
Visibility: 6 or more miles (10+ km)
Ceiling: 6000 feet AGL
Clouds: broken clouds at 6000 feet AGL
Weather: no significant weather observed at this time

METAR text: NWWW 061630Z AUTO 00000KT 9999 BKN047 OVC056 22/18 Q1012 NOSIG
Conditions at: NWWW (LA TONTOUTA NLLE, WS) observed 1630 UTC 06 December 2019
Temperature: 22.0°C (72°F)
Dewpoint: 18.0°C (64°F) [RH = 78%]
Pressure (altimeter): 29.88 inches Hg (1012.0 mb)
Winds: calm
Visibility: 6 or more miles (10+ km)
Ceiling: 4700 feet AGL
Clouds: broken clouds at 4700 feet AGL
overcast cloud deck at 5600 feet AGL
Weather: no significant weather observed at this time

METAR text: NWWW 061600Z AUTO VRB01KT 9999 OVC048 22/18 Q1012 NOSIG
Conditions at: NWWW (LA TONTOUTA NLLE, WS) observed 1600 UTC 06 December 2019
Temperature: 22.0°C (72°F)
Dewpoint: 18.0°C (64°F) [RH = 78%]
Pressure (altimeter): 29.88 inches Hg (1012.0 mb)
Winds: variable direction winds at 1 MPH (1 knots; 0.5 m/s)
Visibility: 6 or more miles (10+ km)
Ceiling: 4800 feet AGL
Clouds: overcast cloud deck at 4800 feet AGL
Weather: no significant weather observed at this time

METAR text: NWWW 061530Z AUTO 00000KT 9999 BKN052 21/18 Q1011 NOSIG
Conditions at: NWWW (LA TONTOUTA NLLE, WS) observed 1530 UTC 06 December 2019
Temperature: 21.0°C (70°F)
Dewpoint: 18.0°C (64°F) [RH = 83%]
Pressure (altimeter): 29.85 inches Hg (1011.0 mb)
Winds: calm
Visibility: 6 or more miles (10+ km)
Ceiling: 5200 feet AGL
Clouds: broken clouds at 5200 feet AGL
Weather: no significant weather observed at this time

METAR text: NWWW 061500Z AUTO VRB01KT CAVOK 22/17 Q1011 NOSIG
Conditions at: NWWW (LA TONTOUTA NLLE, WS) observed 1500 UTC 06 December 2019
Temperature: 22.0°C (72°F)
Dewpoint: 17.0°C (63°F) [RH = 73%]
Pressure (altimeter): 29.85 inches Hg (1011.0 mb)
Winds: variable direction winds at 1 MPH (1 knots; 0.5 m/s)
Visibility: 6 or more miles (10+ km)
Ceiling: ceiling and visibility are OK
Clouds: unknown
Weather: no significant weather observed at this time

METAR text: NWWW 061430Z AUTO 00000KT CAVOK 22/18 Q1012 NOSIG
Conditions at: NWWW (LA TONTOUTA NLLE, WS) observed 1430 UTC 06 December 2019
Temperature: 22.0°C (72°F)
Dewpoint: 18.0°C (64°F) [RH = 78%]
Pressure (altimeter): 29.88 inches Hg (1012.0 mb)
Winds: calm
Visibility: 6 or more miles (10+ km)
Ceiling: ceiling and visibility are OK
Clouds: unknown
Weather: no significant weather observed at this time

METAR text: NWWW 061400Z AUTO 05001KT CAVOK 23/18 Q1012 NOSIG
Conditions at: NWWW (LA TONTOUTA NLLE, WS) observed 1400 UTC 06 December 2019
Temperature: 23.0°C (73°F)
Dewpoint: 18.0°C (64°F) [RH = 73%]
Pressure (altimeter): 29.88 inches Hg (1012.0 mb)
Winds: from the NE (50 degrees) at 1 MPH (1 knots; 0.5 m/s)
Visibility: 6 or more miles (10+ km)
Ceiling: ceiling and visibility are OK
Clouds: unknown
Weather: no significant weather observed at this time

METAR text: NWWW 061330Z AUTO 00000KT CAVOK 23/18 Q1012 NOSIG
Conditions at: NWWW (LA TONTOUTA NLLE, WS) observed 1330 UTC 06 December 2019
Temperature: 23.0°C (73°F)
Dewpoint: 18.0°C (64°F) [RH = 73%]
Pressure (altimeter): 29.88 inches Hg (1012.0 mb)
Winds: calm
Visibility: 6 or more miles (10+ km)
Ceiling: ceiling and visibility are OK
Clouds: unknown
Weather: no significant weather observed at this time

METAR text: NWWW 061300Z AUTO 00000KT CAVOK 23/18 Q1012 NOSIG
Conditions at: NWWW (LA TONTOUTA NLLE, WS) observed 1300 UTC 06 December 2019
Temperature: 23.0°C (73°F)
Dewpoint: 18.0°C (64°F) [RH = 73%]
Pressure (altimeter): 29.88 inches Hg (1012.0 mb)
Winds: calm
Visibility: 6 or more miles (10+ km)
Ceiling: ceiling and visibility are OK
Clouds: unknown
Weather: no significant weather observed at this time

METAR text: NWWW 061230Z AUTO 00000KT CAVOK 24/18 Q1013 NOSIG
Conditions at: NWWW (LA TONTOUTA NLLE, WS) observed 1230 UTC 06 December 2019
Temperature: 24.0°C (75°F)
Dewpoint: 18.0°C (64°F) [RH = 69%]
Pressure (altimeter): 29.91 inches Hg (1013.0 mb)
Winds: calm
Visibility: 6 or more miles (10+ km)
Ceiling: ceiling and visibility are OK
Clouds: unknown
Weather: no significant weather observed at this time

METAR text: NWWW 061200Z AUTO VRB02KT CAVOK 23/18 Q1013 NOSIG
Conditions at: NWWW (LA TONTOUTA NLLE, WS) observed 1200 UTC 06 December 2019
Temperature: 23.0°C (73°F)
Dewpoint: 18.0°C (64°F) [RH = 73%]
Pressure (altimeter): 29.91 inches Hg (1013.0 mb)
Winds: variable direction winds at 2 MPH (2 knots; 1.0 m/s)
Visibility: 6 or more miles (10+ km)
Ceiling: ceiling and visibility are OK
Clouds: unknown
Weather: no significant weather observed at this time

METAR text: NWWW 061130Z AUTO 14006KT CAVOK 24/18 Q1013 NOSIG
Conditions at: NWWW (LA TONTOUTA NLLE, WS) observed 1130 UTC 06 December 2019
Temperature: 24.0°C (75°F)
Dewpoint: 18.0°C (64°F) [RH = 69%]
Pressure (altimeter): 29.91 inches Hg (1013.0 mb)
Winds: from the SE (140 degrees) at 7 MPH (6 knots; 3.1 m/s)
Visibility: 6 or more miles (10+ km)
Ceiling: ceiling and visibility are OK
Clouds: unknown
Weather: no significant weather observed at this time

METAR text: NWWW 061100Z AUTO 13005KT 080V140 CAVOK 24/18 Q1013 NOSIG
Conditions at: NWWW (LA TONTOUTA NLLE, WS) observed 1100 UTC 06 December 2019
Temperature: 24.0°C (75°F)
Dewpoint: 18.0°C (64°F) [RH = 69%]
Pressure (altimeter): 29.91 inches Hg (1013.0 mb)
Winds: from the SE (130 degrees) at 6 MPH (5 knots; 2.6 m/s)
Visibility: 6 or more miles (10+ km)
Ceiling: ceiling and visibility are OK
Clouds: unknown
Weather: no significant weather observed at this time

METAR text: NWWW 061030Z AUTO 13007KT 9999 FEW066 25/19 Q1013 NOSIG
Conditions at: NWWW (LA TONTOUTA NLLE, WS) observed 1030 UTC 06 December 2019
Temperature: 25.0°C (77°F)
Dewpoint: 19.0°C (66°F) [RH = 69%]
Pressure (altimeter): 29.91 inches Hg (1013.0 mb)
Winds: from the SE (130 degrees) at 8 MPH (7 knots; 3.6 m/s)
Visibility: 6 or more miles (10+ km)
Ceiling: at least 12,000 feet AGL
Clouds: few clouds at 6600 feet AGL
Weather: no significant weather observed at this time

METAR text: NWWW 061000Z AUTO 12004KT 080V170 9999 BKN066 25/19 Q1013 BECMG 14014KT
Conditions at: NWWW (LA TONTOUTA NLLE, WS) observed 1000 UTC 06 December 2019
Temperature: 25.0°C (77°F)
Dewpoint: 19.0°C (66°F) [RH = 69%]
Pressure (altimeter): 29.91 inches Hg (1013.0 mb)
Winds: from the ESE (120 degrees) at 5 MPH (4 knots; 2.1 m/s)
Visibility: 6 or more miles (10+ km)
Ceiling: 6600 feet AGL
Clouds: broken clouds at 6600 feet AGL
Weather: no significant weather observed at this time

METAR text: NWWW 060930Z AUTO VRB02KT 9999 BKN060 25/19 Q1012 BECMG 14014KT
Conditions at: NWWW (LA TONTOUTA NLLE, WS) observed 0930 UTC 06 December 2019
Temperature: 25.0°C (77°F)
Dewpoint: 19.0°C (66°F) [RH = 69%]
Pressure (altimeter): 29.88 inches Hg (1012.0 mb)
Winds: variable direction winds at 2 MPH (2 knots; 1.0 m/s)
Visibility: 6 or more miles (10+ km)
Ceiling: 6000 feet AGL
Clouds: broken clouds at 6000 feet AGL
Weather: no significant weather observed at this time

METAR text: NWWW 060900Z AUTO 11004KT 080V140 9999 SCT056 26/20 Q1012 BECMG 14014KT
Conditions at: NWWW (LA TONTOUTA NLLE, WS) observed 0900 UTC 06 December 2019
Temperature: 26.0°C (79°F)
Dewpoint: 20.0°C (68°F) [RH = 70%]
Pressure (altimeter): 29.88 inches Hg (1012.0 mb)
Winds: from the ESE (110 degrees) at 5 MPH (4 knots; 2.1 m/s)
Visibility: 6 or more miles (10+ km)
Ceiling: at least 12,000 feet AGL
Clouds: scattered clouds at 5600 feet AGL
Weather: no significant weather observed at this time

METAR text: NWWW 060830Z AUTO 13005KT 080V160 CAVOK 26/20 Q1012 NOSIG
Conditions at: NWWW (LA TONTOUTA NLLE, WS) observed 0830 UTC 06 December 2019
Temperature: 26.0°C (79°F)
Dewpoint: 20.0°C (68°F) [RH = 70%]
Pressure (altimeter): 29.88 inches Hg (1012.0 mb)
Winds: from the SE (130 degrees) at 6 MPH (5 knots; 2.6 m/s)
Visibility: 6 or more miles (10+ km)
Ceiling: ceiling and visibility are OK
Clouds: unknown
Weather: no significant weather observed at this time

METAR text: NWWW 060800Z AUTO 14008KT 9999 FEW052 SCT064 26/20 Q1011 NOSIG
Conditions at: NWWW (LA TONTOUTA NLLE, WS) observed 0800 UTC 06 December 2019
Temperature: 26.0°C (79°F)
Dewpoint: 20.0°C (68°F) [RH = 70%]
Pressure (altimeter): 29.85 inches Hg (1011.0 mb)
Winds: from the SE (140 degrees) at 9 MPH (8 knots; 4.1 m/s)
Visibility: 6 or more miles (10+ km)
Ceiling: at least 12,000 feet AGL
Clouds: few clouds at 5200 feet AGL
scattered clouds at 6400 feet AGL
Weather: no significant weather observed at this time

METAR text: NWWW 060730Z AUTO 14009KT 9999 FEW052 BKN062 26/20 Q1011 NOSIG
Conditions at: NWWW (LA TONTOUTA NLLE, WS) observed 0730 UTC 06 December 2019
Temperature: 26.0°C (79°F)
Dewpoint: 20.0°C (68°F) [RH = 70%]
Pressure (altimeter): 29.85 inches Hg (1011.0 mb)
Winds: from the SE (140 degrees) at 10 MPH (9 knots; 4.6 m/s)
Visibility: 6 or more miles (10+ km)
Ceiling: 6200 feet AGL
Clouds: few clouds at 5200 feet AGL
broken clouds at 6200 feet AGL
Weather: no significant weather observed at this time

METAR text: NWWW 060700Z AUTO 15013KT 9999 FEW056 27/20 Q1010 TEMPO SHRA FEW020TCU
Conditions at: NWWW (LA TONTOUTA NLLE, WS) observed 0700 UTC 06 December 2019
Temperature: 27.0°C (81°F)
Dewpoint: 20.0°C (68°F) [RH = 66%]
Pressure (altimeter): 29.82 inches Hg (1010.0 mb)
Winds: from the SSE (150 degrees) at 15 MPH (13 knots; 6.7 m/s)
Visibility: 6 or more miles (10+ km)
Ceiling: at least 12,000 feet AGL
Clouds: few clouds at 5600 feet AGL
Weather: no significant weather observed at this time

METAR text: NWWW 060630Z AUTO 15013KT 9999 FEW058 29/21 Q1010 TEMPO SHRA FEW020TCU
Conditions at: NWWW (LA TONTOUTA NLLE, WS) observed 0630 UTC 06 December 2019
Temperature: 29.0°C (84°F)
Dewpoint: 21.0°C (70°F) [RH = 62%]
Pressure (altimeter): 29.82 inches Hg (1010.0 mb)
Winds: from the SSE (150 degrees) at 15 MPH (13 knots; 6.7 m/s)
Visibility: 6 or more miles (10+ km)
Ceiling: at least 12,000 feet AGL
Clouds: few clouds at 5800 feet AGL
Weather: no significant weather observed at this time

METAR text: NWWW 060600Z AUTO 14015KT 9999 BKN042 OVC052 28/20 Q1010 TEMPO SHRA FEW020TCU
Conditions at: NWWW (LA TONTOUTA NLLE, WS) observed 0600 UTC 06 December 2019
Temperature: 28.0°C (82°F)
Dewpoint: 20.0°C (68°F) [RH = 62%]
Pressure (altimeter): 29.82 inches Hg (1010.0 mb)
Winds: from the SE (140 degrees) at 17 MPH (15 knots; 7.7 m/s)
Visibility: 6 or more miles (10+ km)
Ceiling: 4200 feet AGL
Clouds: broken clouds at 4200 feet AGL
overcast cloud deck at 5200 feet AGL
Weather: no significant weather observed at this time

METAR text: NWWW 060530Z AUTO 14015KT 9999 BKN043 BKN049 OVC062 28/20 Q1010 TEMPO 4000 SHRA SCT020TCU BECMG 21014KT
Conditions at: NWWW (LA TONTOUTA NLLE, WS) observed 0530 UTC 06 December 2019
Temperature: 28.0°C (82°F)
Dewpoint: 20.0°C (68°F) [RH = 62%]
Pressure (altimeter): 29.82 inches Hg (1010.0 mb)
Winds: from the SE (140 degrees) at 17 MPH (15 knots; 7.7 m/s)
Visibility: 6 or more miles (10+ km)
Ceiling: 4300 feet AGL
Clouds: broken clouds at 4300 feet AGL
broken clouds at 4900 feet AGL
overcast cloud deck at 6200 feet AGL
Weather: no significant weather observed at this time

METAR text: NWWW 060500Z AUTO 14016KT 9999 FEW045 BKN052 BKN062 29/20 Q1009 TEMPO 4000 SHRA SCT020TCU BECMG 21014KT
Conditions at: NWWW (LA TONTOUTA NLLE, WS) observed 0500 UTC 06 December 2019
Temperature: 29.0°C (84°F)
Dewpoint: 20.0°C (68°F) [RH = 58%]
Pressure (altimeter): 29.79 inches Hg (1009.0 mb)
Winds: from the SE (140 degrees) at 18 MPH (16 knots; 8.2 m/s)
Visibility: 6 or more miles (10+ km)
Ceiling: 5200 feet AGL
Clouds: few clouds at 4500 feet AGL
broken clouds at 5200 feet AGL
broken clouds at 6200 feet AGL
Weather: no significant weather observed at this time

METAR text: NWWW 060430Z AUTO 15014KT 110V210 9999 FEW054 BKN064 29/20 Q1009 TEMPO 4000 SHRA SCT020TCU
Conditions at: NWWW (LA TONTOUTA NLLE, WS) observed 0430 UTC 06 December 2019
Temperature: 29.0°C (84°F)
Dewpoint: 20.0°C (68°F) [RH = 58%]
Pressure (altimeter): 29.79 inches Hg (1009.0 mb)
Winds: from the SSE (150 degrees) at 16 MPH (14 knots; 7.2 m/s)
Visibility: 6 or more miles (10+ km)
Ceiling: 6400 feet AGL
Clouds: few clouds at 5400 feet AGL
broken clouds at 6400 feet AGL
Weather: no significant weather observed at this time

METAR text: NWWW 060400Z AUTO 16013KT 130V190 9999 SCT064 BKN074 31/20 Q1009 TEMPO 4000 SHRA SCT020TCU
Conditions at: NWWW (LA TONTOUTA NLLE, WS) observed 0400 UTC 06 December 2019
Temperature: 31.0°C (88°F)
Dewpoint: 20.0°C (68°F) [RH = 52%]
Pressure (altimeter): 29.79 inches Hg (1009.0 mb)
Winds: from the SSE (160 degrees) at 15 MPH (13 knots; 6.7 m/s)
Visibility: 6 or more miles (10+ km)
Ceiling: 7400 feet AGL
Clouds: scattered clouds at 6400 feet AGL
broken clouds at 7400 feet AGL
Weather: no significant weather observed at this time

METAR text: NWWW 060330Z AUTO 17012KT 120V200 9999 SCT066 SCT078 32/19 Q1010 TEMPO 4000 SHRA SCT020TCU
Conditions at: NWWW (LA TONTOUTA NLLE, WS) observed 0330 UTC 06 December 2019
Temperature: 32.0°C (90°F)
Dewpoint: 19.0°C (66°F) [RH = 46%]
Pressure (altimeter): 29.82 inches Hg (1010.0 mb)
Winds: from the S (170 degrees) at 14 MPH (12 knots; 6.2 m/s)
Visibility: 6 or more miles (10+ km)
Ceiling: at least 12,000 feet AGL
Clouds: scattered clouds at 6600 feet AGL
scattered clouds at 7800 feet AGL
Weather: no significant weather observed at this time

METAR text: NWWW 060300Z AUTO 16014KT 130V190 9999 FEW044 33/19 Q1010 TEMPO 4000 SHRA SCT020TCU
Conditions at: NWWW (LA TONTOUTA NLLE, WS) observed 0300 UTC 06 December 2019
Temperature: 33.0°C (91°F)
Dewpoint: 19.0°C (66°F) [RH = 44%]
Pressure (altimeter): 29.82 inches Hg (1010.0 mb)
Winds: from the SSE (160 degrees) at 16 MPH (14 knots; 7.2 m/s)
Visibility: 6 or more miles (10+ km)
Ceiling: at least 12,000 feet AGL
Clouds: few clouds at 4400 feet AGL
Weather: no significant weather observed at this time

METAR text: NWWW 060230Z AUTO 17011KT 140V200 9999 BKN046 BKN056 32/20 Q1010 TEMPO 4000 SHRA SCT020TCU
Conditions at: NWWW (LA TONTOUTA NLLE, WS) observed 0230 UTC 06 December 2019
Temperature: 32.0°C (90°F)
Dewpoint: 20.0°C (68°F) [RH = 49%]
Pressure (altimeter): 29.82 inches Hg (1010.0 mb)
Winds: from the S (170 degrees) at 13 MPH (11 knots; 5.7 m/s)
Visibility: 6 or more miles (10+ km)
Ceiling: 4600 feet AGL
Clouds: broken clouds at 4600 feet AGL
broken clouds at 5600 feet AGL
Weather: no significant weather observed at this time

METAR text: NWWW 060200Z AUTO 20013KT 170V230 9999 BKN046 31/19 Q1010 TEMPO 4000 SHRA SCT020TCU
Conditions at: NWWW (LA TONTOUTA NLLE, WS) observed 0200 UTC 06 December 2019
Temperature: 31.0°C (88°F)
Dewpoint: 19.0°C (66°F) [RH = 49%]
Pressure (altimeter): 29.82 inches Hg (1010.0 mb)
Winds: from the SSW (200 degrees) at 15 MPH (13 knots; 6.7 m/s)
Visibility: 6 or more miles (10+ km)
Ceiling: 4600 feet AGL
Clouds: broken clouds at 4600 feet AGL
Weather: no significant weather observed at this time

METAR text: NWWW 060130Z AUTO 21014KT 180V240 9999 BKN041 BKN054 32/20 Q1010 TEMPO 4000 SHRA SCT020TCU
Conditions at: NWWW (LA TONTOUTA NLLE, WS) observed 0130 UTC 06 December 2019
Temperature: 32.0°C (90°F)
Dewpoint: 20.0°C (68°F) [RH = 49%]
Pressure (altimeter): 29.82 inches Hg (1010.0 mb)
Winds: from the SSW (210 degrees) at 16 MPH (14 knots; 7.2 m/s)
Visibility: 6 or more miles (10+ km)
Ceiling: 4100 feet AGL
Clouds: broken clouds at 4100 feet AGL
broken clouds at 5400 feet AGL
Weather: no significant weather observed at this time

METAR text: NWWW 060100Z AUTO 22012KT 9999 BKN039 BKN049 32/20 Q1010 BECMG FEW020TCU
Conditions at: NWWW (LA TONTOUTA NLLE, WS) observed 0100 UTC 06 December 2019
Temperature: 32.0°C (90°F)
Dewpoint: 20.0°C (68°F) [RH = 49%]
Pressure (altimeter): 29.82 inches Hg (1010.0 mb)
Winds: from the SW (220 degrees) at 14 MPH (12 knots; 6.2 m/s)
Visibility: 6 or more miles (10+ km)
Ceiling: 3900 feet AGL
Clouds: broken clouds at 3900 feet AGL
broken clouds at 4900 feet AGL
Weather: no significant weather observed at this time

METAR text: NWWW 060030Z AUTO 21012KT 9999 FEW038 31/20 Q1011 BECMG FEW020TCU
Conditions at: NWWW (LA TONTOUTA NLLE, WS) observed 0030 UTC 06 December 2019
Temperature: 31.0°C (88°F)
Dewpoint: 20.0°C (68°F) [RH = 52%]
Pressure (altimeter): 29.85 inches Hg (1011.0 mb)
Winds: from the SSW (210 degrees) at 14 MPH (12 knots; 6.2 m/s)
Visibility: 6 or more miles (10+ km)
Ceiling: at least 12,000 feet AGL
Clouds: few clouds at 3800 feet AGL
Weather: no significant weather observed at this time

METAR text: NWWW 060000Z AUTO 23012KT CAVOK 30/21 Q1011 BECMG FEW020TCU
Conditions at: NWWW (LA TONTOUTA NLLE, WS) observed 0000 UTC 06 December 2019
Temperature: 30.0°C (86°F)
Dewpoint: 21.0°C (70°F) [RH = 59%]
Pressure (altimeter): 29.85 inches Hg (1011.0 mb)
Winds: from the SW (230 degrees) at 14 MPH (12 knots; 6.2 m/s)
Visibility: 6 or more miles (10+ km)
Ceiling: ceiling and visibility are OK
Clouds: unknown
Weather: no significant weather observed at this time

METAR text: NWWW 052330Z AUTO 23010KT 200V260 9999 FEW044/// 30/21 Q1012 NOSIG
Conditions at: NWWW (LA TONTOUTA NLLE, WS) observed 2330 UTC 05 December 2019
Temperature: 30.0°C (86°F)
Dewpoint: 21.0°C (70°F) [RH = 59%]
Pressure (altimeter): 29.88 inches Hg (1012.0 mb)
Winds: from the SW (230 degrees) at 12 MPH (10 knots; 5.1 m/s)
Visibility: 6 or more miles (10+ km)
Ceiling: at least 12,000 feet AGL
Clouds: few clouds at 4400 feet AGL
Weather: no significant weather observed at this time

METAR text: NWWW 052300Z AUTO 26010KT 9999 BKN038/// BKN045/// 30/19 Q1012 NOSIG
Conditions at: NWWW (LA TONTOUTA NLLE, WS) observed 2300 UTC 05 December 2019
Temperature: 30.0°C (86°F)
Dewpoint: 19.0°C (66°F) [RH = 52%]
Pressure (altimeter): 29.88 inches Hg (1012.0 mb)
Winds: from the W (260 degrees) at 12 MPH (10 knots; 5.1 m/s)
Visibility: 6 or more miles (10+ km)
Ceiling: 3800 feet AGL
Clouds: broken clouds at 3800 feet AGL
broken clouds at 4500 feet AGL
Weather: no significant weather observed at this time

METAR text: NWWW 052230Z AUTO 27008KT 240V300 9999 SCT038/// 29/19 Q1012 NOSIG
Conditions at: NWWW (LA TONTOUTA NLLE, WS) observed 2230 UTC 05 December 2019
Temperature: 29.0°C (84°F)
Dewpoint: 19.0°C (66°F) [RH = 55%]
Pressure (altimeter): 29.88 inches Hg (1012.0 mb)
Winds: from the W (270 degrees) at 9 MPH (8 knots; 4.1 m/s)
Visibility: 6 or more miles (10+ km)
Ceiling: at least 12,000 feet AGL
Clouds: scattered clouds at 3800 feet AGL
Weather: no significant weather observed at this time

METAR text: NWWW 052200Z AUTO VRB06KT 9999 FEW034/// 28/19 Q1012 NOSIG
Conditions at: NWWW (LA TONTOUTA NLLE, WS) observed 2200 UTC 05 December 2019
Temperature: 28.0°C (82°F)
Dewpoint: 19.0°C (66°F) [RH = 58%]
Pressure (altimeter): 29.88 inches Hg (1012.0 mb)
Winds: variable direction winds at 7 MPH (6 knots; 3.1 m/s)
Visibility: 6 or more miles (10+ km)
Ceiling: at least 12,000 feet AGL
Clouds: few clouds at 3400 feet AGL
Weather: no significant weather observed at this time

METAR text: NWWW 052130Z AUTO 24004KT 170V310 CAVOK 28/19 Q1012 NOSIG
Conditions at: NWWW (LA TONTOUTA NLLE, WS) observed 2130 UTC 05 December 2019
Temperature: 28.0°C (82°F)
Dewpoint: 19.0°C (66°F) [RH = 58%]
Pressure (altimeter): 29.88 inches Hg (1012.0 mb)
Winds: from the WSW (240 degrees) at 5 MPH (4 knots; 2.1 m/s)
Visibility: 6 or more miles (10+ km)
Ceiling: ceiling and visibility are OK
Clouds: unknown
Weather: no significant weather observed at this time

METAR text: NWWW 052100Z AUTO VRB03KT CAVOK 27/19 Q1012 NOSIG
Conditions at: NWWW (LA TONTOUTA NLLE, WS) observed 2100 UTC 05 December 2019
Temperature: 27.0°C (81°F)
Dewpoint: 19.0°C (66°F) [RH = 62%]
Pressure (altimeter): 29.88 inches Hg (1012.0 mb)
Winds: variable direction winds at 3 MPH (3 knots; 1.5 m/s)
Visibility: 6 or more miles (10+ km)
Ceiling: ceiling and visibility are OK
Clouds: unknown
Weather: no significant weather observed at this time

METAR text: NWWW 052030Z AUTO VRB02KT CAVOK 25/20 Q1012 BECMG 21012KT
Conditions at: NWWW (LA TONTOUTA NLLE, WS) observed 2030 UTC 05 December 2019
Temperature: 25.0°C (77°F)
Dewpoint: 20.0°C (68°F) [RH = 74%]
Pressure (altimeter): 29.88 inches Hg (1012.0 mb)
Winds: variable direction winds at 2 MPH (2 knots; 1.0 m/s)
Visibility: 6 or more miles (10+ km)
Ceiling: ceiling and visibility are OK
Clouds: unknown
Weather: no significant weather observed at this time

METAR text: NWWW 052000Z AUTO VRB02KT CAVOK 24/20 Q1012 NOSIG
Conditions at: NWWW (LA TONTOUTA NLLE, WS) observed 2000 UTC 05 December 2019
Temperature: 24.0°C (75°F)
Dewpoint: 20.0°C (68°F) [RH = 78%]
Pressure (altimeter): 29.88 inches Hg (1012.0 mb)
Winds: variable direction winds at 2 MPH (2 knots; 1.0 m/s)
Visibility: 6 or more miles (10+ km)
Ceiling: ceiling and visibility are OK
Clouds: unknown
Weather: no significant weather observed at this time

METAR text: NWWW 051930Z AUTO VRB01KT CAVOK 23/20 Q1012 NOSIG
Conditions at: NWWW (LA TONTOUTA NLLE, WS) observed 1930 UTC 05 December 2019
Temperature: 23.0°C (73°F)
Dewpoint: 20.0°C (68°F) [RH = 83%]
Pressure (altimeter): 29.88 inches Hg (1012.0 mb)
Winds: variable direction winds at 1 MPH (1 knots; 0.5 m/s)
Visibility: 6 or more miles (10+ km)
Ceiling: ceiling and visibility are OK
Clouds: unknown
Weather: no significant weather observed at this time

METAR text: NWWW 051900Z AUTO VRB02KT CAVOK 21/19 Q1013 NOSIG
Conditions at: NWWW (LA TONTOUTA NLLE, WS) observed 1900 UTC 05 December 2019
Temperature: 21.0°C (70°F)
Dewpoint: 19.0°C (66°F) [RH = 88%]
Pressure (altimeter): 29.91 inches Hg (1013.0 mb)
Winds: variable direction winds at 2 MPH (2 knots; 1.0 m/s)
Visibility: 6 or more miles (10+ km)
Ceiling: ceiling and visibility are OK
Clouds: unknown
Weather: no significant weather observed at this time

METAR text: NWWW 051830Z AUTO VRB01KT CAVOK 20/19 Q1012 NOSIG
Conditions at: NWWW (LA TONTOUTA NLLE, WS) observed 1830 UTC 05 December 2019
Temperature: 20.0°C (68°F)
Dewpoint: 19.0°C (66°F) [RH = 94%]
Pressure (altimeter): 29.88 inches Hg (1012.0 mb)
Winds: variable direction winds at 1 MPH (1 knots; 0.5 m/s)
Visibility: 6 or more miles (10+ km)
Ceiling: ceiling and visibility are OK
Clouds: unknown
Weather: no significant weather observed at this time

METAR text: NWWW 051800Z AUTO 14003KT CAVOK 20/19 Q1012 NOSIG
Conditions at: NWWW (LA TONTOUTA NLLE, WS) observed 1800 UTC 05 December 2019
Temperature: 20.0°C (68°F)
Dewpoint: 19.0°C (66°F) [RH = 94%]
Pressure (altimeter): 29.88 inches Hg (1012.0 mb)
Winds: from the SE (140 degrees) at 3 MPH (3 knots; 1.5 m/s)
Visibility: 6 or more miles (10+ km)
Ceiling: ceiling and visibility are OK
Clouds: unknown
Weather: no significant weather observed at this time

METAR text: NWWW 051730Z AUTO 17002KT CAVOK 20/19 Q1012 NOSIG
Conditions at: NWWW (LA TONTOUTA NLLE, WS) observed 1730 UTC 05 December 2019
Temperature: 20.0°C (68°F)
Dewpoint: 19.0°C (66°F) [RH = 94%]
Pressure (altimeter): 29.88 inches Hg (1012.0 mb)
Winds: from the S (170 degrees) at 2 MPH (2 knots; 1.0 m/s)
Visibility: 6 or more miles (10+ km)
Ceiling: ceiling and visibility are OK
Clouds: unknown
Weather: no significant weather observed at this time

METAR text: NWWW 051700Z AUTO VRB01KT CAVOK 20/19 Q1012 NOSIG
Conditions at: NWWW (LA TONTOUTA NLLE, WS) observed 1700 UTC 05 December 2019
Temperature: 20.0°C (68°F)
Dewpoint: 19.0°C (66°F) [RH = 94%]
Pressure (altimeter): 29.88 inches Hg (1012.0 mb)
Winds: variable direction winds at 1 MPH (1 knots; 0.5 m/s)
Visibility: 6 or more miles (10+ km)
Ceiling: ceiling and visibility are OK
Clouds: unknown
Weather: no significant weather observed at this time

METAR text: NWWW 051630Z AUTO 00000KT CAVOK 21/19 Q1011 NOSIG
Conditions at: NWWW (LA TONTOUTA NLLE, WS) observed 1630 UTC 05 December 2019
Temperature: 21.0°C (70°F)
Dewpoint: 19.0°C (66°F) [RH = 88%]
Pressure (altimeter): 29.85 inches Hg (1011.0 mb)
Winds: calm
Visibility: 6 or more miles (10+ km)
Ceiling: ceiling and visibility are OK
Clouds: unknown
Weather: no significant weather observed at this time

METAR text: NWWW 051600Z AUTO 14002KT CAVOK 21/19 Q1011 NOSIG
Conditions at: NWWW (LA TONTOUTA NLLE, WS) observed 1600 UTC 05 December 2019
Temperature: 21.0°C (70°F)
Dewpoint: 19.0°C (66°F) [RH = 88%]
Pressure (altimeter): 29.85 inches Hg (1011.0 mb)
Winds: from the SE (140 degrees) at 2 MPH (2 knots; 1.0 m/s)
Visibility: 6 or more miles (10+ km)
Ceiling: ceiling and visibility are OK
Clouds: unknown
Weather: no significant weather observed at this time

METAR text: NWWW 051530Z AUTO 17001KT CAVOK 21/19 Q1011 NOSIG
Conditions at: NWWW (LA TONTOUTA NLLE, WS) observed 1530 UTC 05 December 2019
Temperature: 21.0°C (70°F)
Dewpoint: 19.0°C (66°F) [RH = 88%]
Pressure (altimeter): 29.85 inches Hg (1011.0 mb)
Winds: from the S (170 degrees) at 1 MPH (1 knots; 0.5 m/s)
Visibility: 6 or more miles (10+ km)
Ceiling: ceiling and visibility are OK
Clouds: unknown
Weather: no significant weather observed at this time

METAR text: NWWW 051500Z AUTO 00000KT CAVOK 22/19 Q1011 NOSIG
Conditions at: NWWW (LA TONTOUTA NLLE, WS) observed 1500 UTC 05 December 2019
Temperature: 22.0°C (72°F)
Dewpoint: 19.0°C (66°F) [RH = 83%]
Pressure (altimeter): 29.85 inches Hg (1011.0 mb)
Winds: calm
Visibility: 6 or more miles (10+ km)
Ceiling: ceiling and visibility are OK
Clouds: unknown
Weather: no significant weather observed at this time

METAR text: NWWW 051430Z AUTO 02002KT CAVOK 22/20 Q1011 NOSIG
Conditions at: NWWW (LA TONTOUTA NLLE, WS) observed 1430 UTC 05 December 2019
Temperature: 22.0°C (72°F)
Dewpoint: 20.0°C (68°F) [RH = 88%]
Pressure (altimeter): 29.85 inches Hg (1011.0 mb)
Winds: from the NNE (20 degrees) at 2 MPH (2 knots; 1.0 m/s)
Visibility: 6 or more miles (10+ km)
Ceiling: ceiling and visibility are OK
Clouds: unknown
Weather: no significant weather observed at this time

METAR text: NWWW 051400Z AUTO VRB02KT CAVOK 22/20 Q1012 NOSIG
Conditions at: NWWW (LA TONTOUTA NLLE, WS) observed 1400 UTC 05 December 2019
Temperature: 22.0°C (72°F)
Dewpoint: 20.0°C (68°F) [RH = 88%]
Pressure (altimeter): 29.88 inches Hg (1012.0 mb)
Winds: variable direction winds at 2 MPH (2 knots; 1.0 m/s)
Visibility: 6 or more miles (10+ km)
Ceiling: ceiling and visibility are OK
Clouds: unknown
Weather: no significant weather observed at this time

METAR text: NWWW 051330Z AUTO 13003KT CAVOK 22/20 Q1012 NOSIG
Conditions at: NWWW (LA TONTOUTA NLLE, WS) observed 1330 UTC 05 December 2019
Temperature: 22.0°C (72°F)
Dewpoint: 20.0°C (68°F) [RH = 88%]
Pressure (altimeter): 29.88 inches Hg (1012.0 mb)
Winds: from the SE (130 degrees) at 3 MPH (3 knots; 1.5 m/s)
Visibility: 6 or more miles (10+ km)
Ceiling: ceiling and visibility are OK
Clouds: unknown
Weather: no significant weather observed at this time

METAR text: NWWW 051300Z AUTO 00000KT 9999 FEW042 23/20 Q1012 NOSIG
Conditions at: NWWW (LA TONTOUTA NLLE, WS) observed 1300 UTC 05 December 2019
Temperature: 23.0°C (73°F)
Dewpoint: 20.0°C (68°F) [RH = 83%]
Pressure (altimeter): 29.88 inches Hg (1012.0 mb)
Winds: calm
Visibility: 6 or more miles (10+ km)
Ceiling: at least 12,000 feet AGL
Clouds: few clouds at 4200 feet AGL
Weather: no significant weather observed at this time

METAR text: NWWW 051230Z AUTO 00000KT 9999 FEW041 23/20 Q1012 NOSIG
Conditions at: NWWW (LA TONTOUTA NLLE, WS) observed 1230 UTC 05 December 2019
Temperature: 23.0°C (73°F)
Dewpoint: 20.0°C (68°F) [RH = 83%]
Pressure (altimeter): 29.88 inches Hg (1012.0 mb)
Winds: calm
Visibility: 6 or more miles (10+ km)
Ceiling: at least 12,000 feet AGL
Clouds: few clouds at 4100 feet AGL
Weather: no significant weather observed at this time

METAR text: NWWW 051200Z AUTO 06003KT CAVOK 23/20 Q1012 NOSIG
Conditions at: NWWW (LA TONTOUTA NLLE, WS) observed 1200 UTC 05 December 2019
Temperature: 23.0°C (73°F)
Dewpoint: 20.0°C (68°F) [RH = 83%]
Pressure (altimeter): 29.88 inches Hg (1012.0 mb)
Winds: from the ENE (60 degrees) at 3 MPH (3 knots; 1.5 m/s)
Visibility: 6 or more miles (10+ km)
Ceiling: ceiling and visibility are OK
Clouds: unknown
Weather: no significant weather observed at this time

METAR text: NWWW 051130Z AUTO VRB02KT CAVOK 23/20 Q1013 NOSIG
Conditions at: NWWW (LA TONTOUTA NLLE, WS) observed 1130 UTC 05 December 2019
Temperature: 23.0°C (73°F)
Dewpoint: 20.0°C (68°F) [RH = 83%]
Pressure (altimeter): 29.91 inches Hg (1013.0 mb)
Winds: variable direction winds at 2 MPH (2 knots; 1.0 m/s)
Visibility: 6 or more miles (10+ km)
Ceiling: ceiling and visibility are OK
Clouds: unknown
Weather: no significant weather observed at this time

METAR text: NWWW 051100Z AUTO VRB03KT 9999 FEW024 23/20 Q1013 NOSIG
Conditions at: NWWW (LA TONTOUTA NLLE, WS) observed 1100 UTC 05 December 2019
Temperature: 23.0°C (73°F)
Dewpoint: 20.0°C (68°F) [RH = 83%]
Pressure (altimeter): 29.91 inches Hg (1013.0 mb)
Winds: variable direction winds at 3 MPH (3 knots; 1.5 m/s)
Visibility: 6 or more miles (10+ km)
Ceiling: at least 12,000 feet AGL
Clouds: few clouds at 2400 feet AGL
Weather: no significant weather observed at this time

METAR text: NWWW 051030Z AUTO 01001KT 9999 BKN024 23/20 Q1013 NOSIG
Conditions at: NWWW (LA TONTOUTA NLLE, WS) observed 1030 UTC 05 December 2019
Temperature: 23.0°C (73°F)
Dewpoint: 20.0°C (68°F) [RH = 83%]
Pressure (altimeter): 29.91 inches Hg (1013.0 mb)
Winds: from the N (10 degrees) at 1 MPH (1 knots; 0.5 m/s)
Visibility: 6 or more miles (10+ km)
Ceiling: 2400 feet AGL
Clouds: broken clouds at 2400 feet AGL
Weather: no significant weather observed at this time

METAR text: NWWW 051000Z AUTO VRB02KT 9999 BKN023 23/20 Q1013 BECMG 16012KT
Conditions at: NWWW (LA TONTOUTA NLLE, WS) observed 1000 UTC 05 December 2019
Temperature: 23.0°C (73°F)
Dewpoint: 20.0°C (68°F) [RH = 83%]
Pressure (altimeter): 29.91 inches Hg (1013.0 mb)
Winds: variable direction winds at 2 MPH (2 knots; 1.0 m/s)
Visibility: 6 or more miles (10+ km)
Ceiling: 2300 feet AGL
Clouds: broken clouds at 2300 feet AGL
Weather: no significant weather observed at this time

METAR text: NWWW 050930Z AUTO 00000KT 9999 BKN024 23/20 Q1013 BECMG 16012KT
Conditions at: NWWW (LA TONTOUTA NLLE, WS) observed 0930 UTC 05 December 2019
Temperature: 23.0°C (73°F)
Dewpoint: 20.0°C (68°F) [RH = 83%]
Pressure (altimeter): 29.91 inches Hg (1013.0 mb)
Winds: calm
Visibility: 6 or more miles (10+ km)
Ceiling: 2400 feet AGL
Clouds: broken clouds at 2400 feet AGL
Weather: no significant weather observed at this time

Forecast for: NWWW (LA TONTOUTA NLLE, WS)
Text: TAF NWWW 061700Z 0618/0718 VRB02KT 9999 FEW050 SCT064
Forecast period: 1800 to 2200 UTC 06 December 2019
Forecast type: FROM: standard forecast or significant change
Winds: variable direction winds at 2 MPH (2 knots; 1.0 m/s)
Visibility: 6 or more miles 10+ km)
Ceiling: at least 12,000 feet AGL
Clouds: few clouds at 5000 feet AGL
scattered clouds at 6400 feet AGL
Weather: no significant weather forecast for this period
Text: BECMG 0622/0624 16014KT
Forecast period: 2200 UTC 06 December 2019 to 1800 UTC 07 December 2019
Forecast type: BECOMING: Conditions expected to become as follows by 0000 UTC 07 December 2019
Winds: from the SSE (160 degrees) at 16 MPH (14 knots; 7.2 m/s)
Visibility: 6 or more miles 10+ km)
Ceiling: at least 12,000 feet AGL
Clouds: few clouds at 5000 feet AGL
scattered clouds at 6400 feet AGL
Weather: no significant weather forecast for this period
Text: TEMPO 0700/0706 4000 SHRA FEW020TCU
Forecast period: 0000 to 0600 UTC 07 December 2019
Forecast type: TEMPORARY: The following changes expected for less than half the time period
Visibility: 2.49 miles (4.01 km)
Ceiling: at least 12,000 feet AGL
Clouds: few clouds at 2000 feet AGL
Weather: SHRA  (rain showers)